createdAt,value
2023-01-09T00:00:22.592Z,5.10
2023-01-09T00:02:49.137Z,5.10
2023-01-09T00:05:17.776Z,5.10
2023-01-09T00:07:44.433Z,5.10
2023-01-09T00:10:12.400Z,5.10
2023-01-09T00:12:39.056Z,5.10
2023-01-09T00:15:06.257Z,5.10
2023-01-09T00:17:32.791Z,5.10
2023-01-09T00:19:59.298Z,5.10
2023-01-09T00:22:25.797Z,5.00
2023-01-09T00:24:52.327Z,5.00
2023-01-09T00:27:18.883Z,5.00
2023-01-09T00:29:46.513Z,5.10
2023-01-09T00:32:13.108Z,5.00
2023-01-09T00:34:39.698Z,4.90
2023-01-09T00:37:11.682Z,5.00
2023-01-09T00:39:39.563Z,5.00
2023-01-09T00:42:09.946Z,5.00
2023-01-09T00:44:42.410Z,5.00
2023-01-09T00:47:14.338Z,5.00
2023-01-09T00:49:42.008Z,5.00
2023-01-09T00:52:11.686Z,5.00
2023-01-09T00:54:39.698Z,4.90
2023-01-09T00:57:07.030Z,4.90
2023-01-09T00:59:33.659Z,4.90
2023-01-09T01:02:00.494Z,4.90
2023-01-09T01:04:45.635Z,4.80
2023-01-09T01:07:30.809Z,4.80
2023-01-09T01:09:57.345Z,4.80
2023-01-09T01:12:23.910Z,4.70
2023-01-09T01:14:51.776Z,4.70
2023-01-09T01:17:18.760Z,4.70
2023-01-09T01:19:45.336Z,4.70
2023-01-09T01:22:11.921Z,4.70
2023-01-09T01:24:38.534Z,4.70
2023-01-09T01:27:05.074Z,4.70
2023-01-09T01:29:31.618Z,4.70
2023-01-09T01:31:58.232Z,4.60
2023-01-09T01:34:25.082Z,4.60
2023-01-09T01:36:51.687Z,4.70
2023-01-09T01:39:18.225Z,4.60
2023-01-09T01:41:44.838Z,4.60
2023-01-09T01:44:48.899Z,4.60
2023-01-09T01:47:17.962Z,4.60
2023-01-09T01:49:45.325Z,4.60
2023-01-09T01:52:12.725Z,4.60
2023-01-09T01:54:39.482Z,4.50
2023-01-09T01:57:06.832Z,4.50
2023-01-09T01:59:40.915Z,4.50
2023-01-09T02:02:09.644Z,4.50
2023-01-09T02:04:39.837Z,4.40
2023-01-09T02:07:09.189Z,4.30
2023-01-09T02:09:36.677Z,4.90
2023-01-09T02:12:24.867Z,4.30
2023-01-09T02:15:03.167Z,4.30
2023-01-09T02:17:50.744Z,4.40
2023-01-09T02:20:52.355Z,4.30
2023-01-09T02:23:49.305Z,4.30
2023-01-09T02:27:04.613Z,4.40
2023-01-09T02:30:04.771Z,4.40
2023-01-09T02:32:52.823Z,4.40
2023-01-09T02:35:44.992Z,4.50
2023-01-09T02:38:33.868Z,4.60
2023-01-09T02:41:08.385Z,4.60
2023-01-09T02:43:34.960Z,4.70
2023-01-09T02:46:01.601Z,4.70
2023-01-09T02:48:29.229Z,4.80
2023-01-09T02:51:12.924Z,4.80
2023-01-09T02:54:00.985Z,4.90
2023-01-09T02:56:48.215Z,4.90
2023-01-09T02:59:30.985Z,4.90
2023-01-09T03:02:12.786Z,5.00
2023-01-09T03:04:56.967Z,5.00
2023-01-09T03:07:32.956Z,5.00
2023-01-09T03:10:12.104Z,5.00
2023-01-09T03:12:42.560Z,5.10
2023-01-09T03:15:12.910Z,5.10
2023-01-09T03:17:43.561Z,5.10
2023-01-09T03:20:12.140Z,5.20
2023-01-09T03:22:52.995Z,5.20
2023-01-09T03:25:19.720Z,5.20
2023-01-09T03:27:46.305Z,5.30
2023-01-09T03:30:13.058Z,5.30
2023-01-09T03:32:39.600Z,5.30
2023-01-09T03:35:06.355Z,5.30
2023-01-09T03:37:32.986Z,5.40
2023-01-09T03:39:59.512Z,5.40
2023-01-09T03:42:26.106Z,5.40
2023-01-09T03:44:52.764Z,5.40
2023-01-09T03:47:19.261Z,5.40
2023-01-09T03:49:45.832Z,5.50
2023-01-09T03:52:13.821Z,5.50
2023-01-09T03:54:40.582Z,5.50
2023-01-09T03:57:07.176Z,5.60
2023-01-09T03:59:33.702Z,5.60
2023-01-09T04:02:03.551Z,5.60
2023-01-09T04:04:30.308Z,5.60
2023-01-09T04:06:56.894Z,5.60
2023-01-09T04:09:23.706Z,5.50
2023-01-09T04:11:50.230Z,5.70
2023-01-09T04:14:16.832Z,5.70
2023-01-09T04:16:43.498Z,5.70
2023-01-09T04:19:10.078Z,5.70
2023-01-09T04:21:36.610Z,5.80
2023-01-09T04:24:03.313Z,5.80
2023-01-09T04:26:29.848Z,5.80
2023-01-09T04:28:56.391Z,5.80
2023-01-09T04:31:22.954Z,5.90
2023-01-09T04:33:49.549Z,5.90
2023-01-09T04:36:16.058Z,5.90
2023-01-09T04:38:42.654Z,5.90
2023-01-09T04:41:10.314Z,6.00
2023-01-09T04:43:36.850Z,6.00
2023-01-09T04:46:03.542Z,6.00
2023-01-09T04:48:30.182Z,6.00
2023-01-09T04:50:56.783Z,6.10
2023-01-09T04:53:23.296Z,6.10
2023-01-09T04:55:49.807Z,6.10
2023-01-09T04:58:16.372Z,6.10
2023-01-09T05:00:42.888Z,6.20
2023-01-09T05:03:09.464Z,6.20
2023-01-09T05:05:36.030Z,6.30
2023-01-09T05:08:02.581Z,6.30
2023-01-09T05:10:29.107Z,6.30
2023-01-09T05:12:55.619Z,6.30
2023-01-09T05:15:22.243Z,6.30
2023-01-09T05:17:48.791Z,7.00
2023-01-09T05:20:15.414Z,6.30
2023-01-09T05:22:41.987Z,6.30
2023-01-09T05:25:08.843Z,6.30
2023-01-09T05:27:35.451Z,6.30
2023-01-09T05:30:02.074Z,6.30
2023-01-09T05:32:28.623Z,6.30
2023-01-09T05:34:55.146Z,6.30
2023-01-09T05:37:21.671Z,6.30
2023-01-09T05:39:48.229Z,6.30
2023-01-09T05:42:14.743Z,6.30
2023-01-09T05:44:41.356Z,6.30
2023-01-09T05:47:07.907Z,6.20
2023-01-09T05:49:34.414Z,6.30
2023-01-09T05:52:00.999Z,6.30
2023-01-09T05:54:27.554Z,6.30
2023-01-09T05:56:54.059Z,6.30
2023-01-09T05:59:20.614Z,6.20
2023-01-09T06:01:47.177Z,6.20
2023-01-09T06:04:13.773Z,6.20
2023-01-09T06:06:40.889Z,6.20
2023-01-09T06:09:07.440Z,6.20
2023-01-09T06:11:35.639Z,6.10
2023-01-09T06:14:02.357Z,6.20
2023-01-09T06:16:29.060Z,6.10
2023-01-09T06:18:55.608Z,6.10
2023-01-09T06:21:22.122Z,6.10
2023-01-09T06:23:48.777Z,6.10
2023-01-09T06:26:15.362Z,6.10
2023-01-09T06:28:44.488Z,6.10
2023-01-09T06:31:11.294Z,6.10
2023-01-09T06:33:37.809Z,6.10
2023-01-09T06:36:04.858Z,6.00
2023-01-09T06:38:31.407Z,6.00
2023-01-09T06:40:57.960Z,6.00
2023-01-09T06:43:24.497Z,6.00
2023-01-09T06:45:51.091Z,6.00
2023-01-09T06:48:18.482Z,6.00
2023-01-09T06:50:46.369Z,6.00
2023-01-09T06:53:13.006Z,6.00
2023-01-09T06:55:39.543Z,6.00
2023-01-09T06:58:06.078Z,6.00
2023-01-09T07:00:32.745Z,6.00
2023-01-09T07:02:59.383Z,5.90
2023-01-09T07:05:26.006Z,5.90
2023-01-09T07:07:52.546Z,5.90
2023-01-09T07:10:19.565Z,5.90
2023-01-09T07:12:46.186Z,5.90
2023-01-09T07:15:12.822Z,5.90
2023-01-09T07:17:39.519Z,5.90
2023-01-09T07:20:07.146Z,5.80
2023-01-09T07:22:33.832Z,5.80
2023-01-09T07:25:00.551Z,5.80
2023-01-09T07:27:27.127Z,5.80
2023-01-09T07:29:53.659Z,5.80
2023-01-09T07:32:20.601Z,5.80
2023-01-09T07:34:48.962Z,5.80
2023-01-09T07:37:15.570Z,5.70
2023-01-09T07:39:42.224Z,5.80
2023-01-09T07:42:08.821Z,5.70
2023-01-09T07:44:35.336Z,5.70
2023-01-09T07:47:02.046Z,5.70
2023-01-09T07:49:28.662Z,5.70
2023-01-09T07:51:55.672Z,5.70
2023-01-09T07:54:22.343Z,5.60
2023-01-09T07:56:48.858Z,5.60
2023-01-09T07:59:15.389Z,5.60
2023-01-09T08:01:42.068Z,5.60
2023-01-09T08:04:08.796Z,5.60
2023-01-09T08:06:35.377Z,5.60
2023-01-09T08:09:02.058Z,5.60
2023-01-09T08:11:28.715Z,5.60
2023-01-09T08:13:55.319Z,5.60
2023-01-09T08:16:21.889Z,5.60
2023-01-09T08:18:48.549Z,5.60
2023-01-09T08:21:15.124Z,5.60
2023-01-09T08:23:41.844Z,5.60
2023-01-09T08:26:08.584Z,5.60
2023-01-09T08:28:35.122Z,5.60
2023-01-09T08:31:01.726Z,5.50
2023-01-09T08:33:28.970Z,5.50
2023-01-09T08:35:55.570Z,5.60
2023-01-09T08:38:22.344Z,5.60
2023-01-09T08:40:49.098Z,5.60
2023-01-09T08:43:34.462Z,5.60
2023-01-09T08:46:20.072Z,5.60
2023-01-09T08:48:48.255Z,5.60
2023-01-09T08:51:15.352Z,5.60
2023-01-09T08:53:41.935Z,5.60
2023-01-09T08:56:09.529Z,5.60
2023-01-09T08:58:36.144Z,5.60
2023-01-09T09:01:06.465Z,5.60
2023-01-09T09:03:33.125Z,5.60
2023-01-09T09:05:59.628Z,5.60
2023-01-09T09:08:26.163Z,5.70
2023-01-09T09:10:52.771Z,5.60
2023-01-09T09:13:19.302Z,5.70
2023-01-09T09:15:45.911Z,5.70
2023-01-09T09:18:12.576Z,5.80
2023-01-09T09:20:39.657Z,5.80
2023-01-09T09:23:08.140Z,5.80
2023-01-09T09:25:35.018Z,5.80
2023-01-09T09:28:01.531Z,5.80
2023-01-09T09:30:28.265Z,5.80
2023-01-09T09:32:55.194Z,5.90
2023-01-09T09:35:22.426Z,6.00
2023-01-09T09:38:02.009Z,6.00
2023-01-09T09:40:48.642Z,6.10
2023-01-09T09:44:14.719Z,6.20
2023-01-09T09:47:05.067Z,6.30
2023-01-09T09:49:46.885Z,6.40
2023-01-09T09:52:28.705Z,6.50
2023-01-09T09:55:01.800Z,6.60
2023-01-09T09:57:36.263Z,6.60
2023-01-09T10:00:05.751Z,6.60
2023-01-09T10:02:54.965Z,6.70
2023-01-09T10:05:27.779Z,6.70
2023-01-09T10:07:57.018Z,6.70
2023-01-09T10:10:37.214Z,6.70
2023-01-09T10:13:24.360Z,6.70
2023-01-09T10:16:08.471Z,6.80
2023-01-09T10:18:56.625Z,6.80
2023-01-09T10:21:26.242Z,6.80
2023-01-09T10:23:58.295Z,6.80
2023-01-09T10:26:51.300Z,6.90
2023-01-09T10:29:41.534Z,6.90
2023-01-09T10:32:15.125Z,6.90
2023-01-09T10:34:48.021Z,6.90
2023-01-09T10:37:17.521Z,7.00
2023-01-09T10:39:59.279Z,7.00
2023-01-09T10:42:39.634Z,7.00
2023-01-09T10:45:19.852Z,7.00
2023-01-09T10:47:47.660Z,7.10
2023-01-09T10:50:26.511Z,7.10
2023-01-09T10:55:47.754Z,7.10
2023-01-09T10:58:17.647Z,7.10
2023-01-09T11:00:44.870Z,7.10
2023-01-09T11:03:16.615Z,7.10
2023-01-09T11:05:44.347Z,7.10
2023-01-09T11:08:13.797Z,7.10
2023-01-09T11:10:55.301Z,7.10
2023-01-09T11:13:23.392Z,7.10
2023-01-09T11:16:16.575Z,7.10
2023-01-09T11:18:53.028Z,7.10
2023-01-09T11:21:35.436Z,7.10
2023-01-09T11:24:27.690Z,7.10
2023-01-09T11:27:12.722Z,7.10
2023-01-09T11:29:43.186Z,7.10
2023-01-09T11:32:24.060Z,7.10
2023-01-09T11:34:50.771Z,7.10
2023-01-09T11:37:35.613Z,7.10
2023-01-09T11:40:02.344Z,7.10
2023-01-09T11:42:48.724Z,7.20
2023-01-09T11:45:18.390Z,7.10
2023-01-09T11:47:46.065Z,7.10
2023-01-09T11:50:18.840Z,7.10
2023-01-09T11:52:46.417Z,7.10
2023-01-09T11:55:18.663Z,7.10
2023-01-09T11:57:45.253Z,7.10
2023-01-09T12:00:35.466Z,7.10
2023-01-09T12:03:08.855Z,7.10
2023-01-09T12:05:53.216Z,7.10
2023-01-09T12:08:39.603Z,7.00
2023-01-09T12:11:17.870Z,7.10
2023-01-09T12:13:52.355Z,7.10
2023-01-09T12:16:40.943Z,7.10
2023-01-09T12:19:42.866Z,7.10
2023-01-09T12:22:46.917Z,7.10
2023-01-09T12:25:38.923Z,7.10
2023-01-09T12:28:33.216Z,7.10
2023-01-09T12:31:11.707Z,7.10
2023-01-09T12:33:45.843Z,7.10
2023-01-09T12:36:43.853Z,7.00
2023-01-09T12:39:45.837Z,7.00
2023-01-09T12:42:18.097Z,7.00
2023-01-09T12:44:59.174Z,6.90
2023-01-09T12:47:45.844Z,6.90
2023-01-09T12:50:27.385Z,6.90
2023-01-09T12:53:08.888Z,6.90
2023-01-09T12:55:42.674Z,6.80
2023-01-09T12:58:27.548Z,6.80
2023-01-09T13:00:56.125Z,6.80
2023-01-09T13:03:32.302Z,6.70
2023-01-09T13:06:00.916Z,6.70
2023-01-09T13:08:31.363Z,6.80
2023-01-09T13:11:20.284Z,6.70
2023-01-09T13:13:56.250Z,6.80
2023-01-09T13:16:29.196Z,6.70
2023-01-09T13:19:28.169Z,6.70
2023-01-09T13:21:57.419Z,6.60
2023-01-09T13:24:47.796Z,6.70
2023-01-09T13:27:20.567Z,6.60
2023-01-09T13:30:03.140Z,6.60
2023-01-09T13:33:14.043Z,6.60
2023-01-09T13:36:19.543Z,6.60
2023-01-09T13:38:49.461Z,6.60
2023-01-09T13:41:37.304Z,6.60
2023-01-09T13:44:07.278Z,6.60
2023-01-09T13:46:43.277Z,6.60
2023-01-09T13:49:28.437Z,6.50
2023-01-09T13:52:19.590Z,6.50
2023-01-09T13:54:55.224Z,6.50
2023-01-09T13:57:29.299Z,6.50
2023-01-09T14:00:20.075Z,6.50
2023-01-09T14:02:46.913Z,6.50
2023-01-09T14:05:15.412Z,6.50
2023-01-09T14:07:44.402Z,6.50
2023-01-09T14:10:20.083Z,6.40
2023-01-09T14:12:47.422Z,6.50
2023-01-09T14:15:41.609Z,6.40
2023-01-09T14:18:17.640Z,6.40
2023-01-09T14:23:52.148Z,6.30
2023-01-09T14:26:40.730Z,6.40
2023-01-09T14:29:41.117Z,6.30
2023-01-09T14:32:22.774Z,6.30
2023-01-09T14:35:05.874Z,6.30
2023-01-09T14:37:36.013Z,6.30
2023-01-09T14:40:06.898Z,6.30
2023-01-09T14:42:40.193Z,6.30
2023-01-09T14:45:18.225Z,6.30
2023-01-09T14:47:48.457Z,6.20
2023-01-09T14:50:45.049Z,6.30
2023-01-09T14:53:16.918Z,6.20
2023-01-09T14:58:52.507Z,6.20
2023-01-09T15:01:25.318Z,6.20
2023-01-09T15:03:58.740Z,6.20
2023-01-09T15:06:29.535Z,6.20
2023-01-09T15:09:04.937Z,6.10
2023-01-09T15:11:32.921Z,6.20
2023-01-09T15:14:02.383Z,6.20
2023-01-09T15:16:31.901Z,6.20
2023-01-09T15:19:02.274Z,6.10
2023-01-09T15:21:33.438Z,6.10
2023-01-09T15:24:23.173Z,6.20
2023-01-09T15:26:59.164Z,6.10
2023-01-09T15:29:26.664Z,6.10
2023-01-09T15:32:01.862Z,6.10
2023-01-09T15:34:29.160Z,6.10
2023-01-09T15:36:55.993Z,6.10
2023-01-09T15:39:26.597Z,6.10
2023-01-09T15:42:12.760Z,6.10
2023-01-09T15:44:41.838Z,6.10
2023-01-09T15:47:14.855Z,6.10
2023-01-09T15:49:41.603Z,6.10
2023-01-09T15:52:14.997Z,6.10
2023-01-09T15:54:43.753Z,6.10
2023-01-09T15:57:25.609Z,6.10
2023-01-09T15:59:56.327Z,6.10
2023-01-09T16:02:43.939Z,6.10
2023-01-09T16:05:15.711Z,6.10
2023-01-09T16:07:50.497Z,6.10
2023-01-09T16:10:28.327Z,6.10
2023-01-09T16:12:55.225Z,6.10
2023-01-09T16:15:21.965Z,6.10
2023-01-09T16:18:15.572Z,6.10
2023-01-09T16:20:42.928Z,6.10
2023-01-09T16:23:29.530Z,6.10
2023-01-09T16:26:11.753Z,6.10
2023-01-09T16:28:40.890Z,6.10
2023-01-09T16:31:23.855Z,6.10
2023-01-09T16:33:59.585Z,6.10
2023-01-09T16:36:27.315Z,6.10
2023-01-09T16:38:54.622Z,6.10
2023-01-09T16:41:40.821Z,6.10
2023-01-09T16:44:09.498Z,6.10
2023-01-09T16:46:39.353Z,6.10
2023-01-09T16:49:16.727Z,6.10
2023-01-09T16:51:43.472Z,6.10
2023-01-09T16:54:10.105Z,6.10
2023-01-09T16:56:38.477Z,6.10
2023-01-09T16:59:05.027Z,6.20
2023-01-09T17:01:31.577Z,6.10
2023-01-09T17:03:58.284Z,6.20
2023-01-09T17:06:29.950Z,6.10
2023-01-09T17:08:57.439Z,6.20
2023-01-09T17:11:31.105Z,6.20
2023-01-09T17:13:58.525Z,6.10
2023-01-09T17:16:25.166Z,6.20
2023-01-09T17:18:51.823Z,6.20
2023-01-09T17:21:28.769Z,6.20
2023-01-09T17:24:28.656Z,6.20
2023-01-09T17:27:14.285Z,6.20
2023-01-09T17:29:40.820Z,6.20
2023-01-09T17:32:09.139Z,6.30
2023-01-09T17:34:35.850Z,6.30
2023-01-09T17:37:04.387Z,6.30
2023-01-09T17:39:31.299Z,6.30
2023-01-09T17:41:58.861Z,6.30
2023-01-09T17:44:26.294Z,6.30
2023-01-09T17:46:52.828Z,6.30
2023-01-09T17:49:21.699Z,6.30
2023-01-09T17:51:48.427Z,6.30
2023-01-09T17:54:15.121Z,6.30
2023-01-09T17:56:50.759Z,6.30
2023-01-09T17:59:18.069Z,6.30
2023-01-09T18:01:45.226Z,6.30
2023-01-09T18:04:12.215Z,6.20
2023-01-09T18:06:38.769Z,6.20
2023-01-09T18:09:06.203Z,6.20
2023-01-09T18:11:32.992Z,6.20
2023-01-09T18:13:59.576Z,6.10
2023-01-09T18:16:27.605Z,6.10
2023-01-09T18:18:57.416Z,6.10
2023-01-09T18:21:24.941Z,6.10
2023-01-09T18:23:51.826Z,6.10
2023-01-09T18:26:21.797Z,6.10
2023-01-09T18:28:54.987Z,6.10
2023-01-09T18:31:24.310Z,6.10
2023-01-09T18:33:52.714Z,6.10
2023-01-09T18:36:21.861Z,6.10
2023-01-09T18:38:53.185Z,6.10
2023-01-09T18:41:20.900Z,6.10
2023-01-09T18:43:53.913Z,6.10
2023-01-09T18:46:23.996Z,6.10
2023-01-09T18:48:52.331Z,6.00
2023-01-09T18:51:19.251Z,6.00
2023-01-09T18:53:45.772Z,6.00
2023-01-09T18:56:12.316Z,6.00
2023-01-09T18:58:38.907Z,5.90
2023-01-09T19:01:05.736Z,5.90
2023-01-09T19:03:32.482Z,5.90
2023-01-09T19:06:00.794Z,5.90
2023-01-09T19:08:31.921Z,5.90
2023-01-09T19:10:58.828Z,5.90
2023-01-09T19:13:29.922Z,5.90
2023-01-09T19:15:57.347Z,5.90
2023-01-09T19:18:24.567Z,5.90
2023-01-09T19:20:52.681Z,5.90
2023-01-09T19:23:20.463Z,5.90
2023-01-09T19:25:47.714Z,5.90
2023-01-09T19:28:14.730Z,5.90
2023-01-09T19:30:41.682Z,5.90
2023-01-09T19:33:12.655Z,5.90
2023-01-09T19:35:39.524Z,5.90
2023-01-09T19:38:06.343Z,5.90
2023-01-09T19:40:32.911Z,5.90
2023-01-09T19:42:59.559Z,5.90
2023-01-09T19:45:26.127Z,5.90
2023-01-09T19:47:52.672Z,5.90
2023-01-09T19:50:19.385Z,5.90
2023-01-09T19:52:46.162Z,5.90
2023-01-09T19:55:15.337Z,6.00
2023-01-09T19:57:46.459Z,6.00
2023-01-09T20:00:14.512Z,6.00
2023-01-09T20:02:43.934Z,6.00
2023-01-09T20:05:10.533Z,6.00
2023-01-09T20:07:37.102Z,6.00
2023-01-09T20:10:04.095Z,6.00
2023-01-09T20:12:32.302Z,6.00
2023-01-09T20:14:58.993Z,6.00
2023-01-09T20:17:25.584Z,6.00
2023-01-09T20:19:52.111Z,6.00
2023-01-09T20:22:18.857Z,6.00
2023-01-09T20:24:45.365Z,6.00
2023-01-09T20:27:11.956Z,6.00
2023-01-09T20:29:38.551Z,6.00
2023-01-09T20:32:06.060Z,6.00
2023-01-09T20:34:32.740Z,6.00
2023-01-09T20:36:59.330Z,6.00
2023-01-09T20:39:25.943Z,6.00
2023-01-09T20:41:52.508Z,6.00
2023-01-09T20:44:19.352Z,6.00
2023-01-09T20:46:47.795Z,6.00
2023-01-09T20:49:17.981Z,6.00
2023-01-09T20:51:47.228Z,6.00
2023-01-09T20:54:14.908Z,6.00
2023-01-09T20:56:41.874Z,6.10
2023-01-09T20:59:13.824Z,6.00
2023-01-09T21:01:40.542Z,6.10
2023-01-09T21:04:08.552Z,6.10
2023-01-09T21:06:35.773Z,6.00
2023-01-09T21:09:02.969Z,6.00
2023-01-09T21:11:29.578Z,6.00
2023-01-09T21:13:56.148Z,6.10
2023-01-09T21:16:24.260Z,6.10
2023-01-09T21:18:51.759Z,6.10
2023-01-09T21:21:22.176Z,6.10
2023-01-09T21:23:51.871Z,6.10
2023-01-09T21:26:22.356Z,6.10
2023-01-09T21:28:49.919Z,6.10
2023-01-09T21:31:19.061Z,6.10
2023-01-09T21:33:46.170Z,6.20
2023-01-09T21:36:12.961Z,6.10
2023-01-09T21:38:39.951Z,6.20
2023-01-09T21:41:25.353Z,6.20
2023-01-09T21:44:10.590Z,6.20
2023-01-09T21:46:52.618Z,6.20
2023-01-09T21:49:20.621Z,6.20
2023-01-09T21:51:47.228Z,6.20
2023-01-09T21:54:13.885Z,6.20
2023-01-09T21:56:40.416Z,6.20
2023-01-09T21:59:07.179Z,6.20
2023-01-09T22:01:33.756Z,6.20
2023-01-09T22:04:00.476Z,6.20
2023-01-09T22:06:28.382Z,6.10
2023-01-09T22:08:55.783Z,6.10
2023-01-09T22:11:22.816Z,6.10
2023-01-09T22:13:50.231Z,6.00
2023-01-09T22:16:17.340Z,6.00
2023-01-09T22:18:44.240Z,6.00
2023-01-09T22:21:11.119Z,5.90
2023-01-09T22:23:37.884Z,5.90
2023-01-09T22:26:12.169Z,6.00
2023-01-09T22:28:39.194Z,5.90
2023-01-09T22:31:19.924Z,5.90
2023-01-09T22:33:54.418Z,5.90
2023-01-09T22:36:21.048Z,5.90
2023-01-09T22:38:47.911Z,5.90
2023-01-09T22:41:14.699Z,5.90
2023-01-09T22:43:41.337Z,5.80
2023-01-09T22:46:11.488Z,5.90
2023-01-09T22:48:39.377Z,5.80
2023-01-09T22:51:12.647Z,5.80
2023-01-09T22:53:39.585Z,5.80
2023-01-09T22:56:10.764Z,5.80
2023-01-09T22:58:37.346Z,5.80
2023-01-09T23:01:04.305Z,5.70
2023-01-09T23:03:31.028Z,5.80
2023-01-09T23:06:05.383Z,5.70
2023-01-09T23:08:32.673Z,5.70
2023-01-09T23:11:00.053Z,5.70
2023-01-09T23:13:27.178Z,5.70
2023-01-09T23:15:54.309Z,5.70
2023-01-09T23:18:20.965Z,5.70
2023-01-09T23:20:55.573Z,5.60
2023-01-09T23:23:24.323Z,5.60
2023-01-09T23:25:52.908Z,5.60
2023-01-09T23:28:20.427Z,5.60
2023-01-09T23:30:47.856Z,5.60
2023-01-09T23:33:16.538Z,5.60
2023-01-09T23:35:44.119Z,5.50
2023-01-09T23:38:13.871Z,5.50
2023-01-09T23:40:41.578Z,5.40
2023-01-09T23:43:10.524Z,5.40
2023-01-09T23:45:42.113Z,5.40
2023-01-09T23:48:10.778Z,5.40
2023-01-09T23:50:37.365Z,5.40
2023-01-09T23:53:04.479Z,5.40
2023-01-09T23:55:32.136Z,5.40
2023-01-09T23:57:58.767Z,5.30
